createdAt,value
2024-03-08T00:01:21.969Z,83.00
2024-03-08T00:04:24.599Z,83.20
2024-03-08T00:07:27.441Z,83.30
2024-03-08T00:10:30.280Z,83.40
2024-03-08T00:13:32.009Z,83.50
2024-03-08T00:16:34.371Z,83.60
2024-03-08T00:19:35.989Z,84.20
2024-03-08T00:22:38.987Z,86.40
2024-03-08T00:25:40.636Z,88.50
2024-03-08T00:28:43.468Z,86.50
2024-03-08T00:31:45.126Z,84.80
2024-03-08T00:34:47.930Z,83.70
2024-03-08T00:37:49.780Z,83.50
2024-03-08T00:40:51.489Z,83.50
2024-03-08T00:43:53.182Z,83.70
2024-03-08T00:46:55.931Z,83.60
2024-03-08T00:49:57.700Z,83.20
2024-03-08T00:53:00.370Z,83.00
2024-03-08T00:56:02.066Z,83.10
2024-03-08T00:59:04.866Z,83.00
2024-03-08T01:02:06.602Z,83.10
2024-03-08T01:05:09.532Z,83.20
2024-03-08T01:08:11.195Z,83.10
2024-03-08T01:11:17.063Z,82.80
2024-03-08T01:14:18.730Z,82.50
2024-03-08T01:17:20.468Z,82.60
2024-03-08T01:20:22.168Z,82.60
2024-03-08T01:23:24.823Z,82.60
2024-03-08T01:26:26.526Z,82.80
2024-03-08T01:29:28.219Z,82.90
2024-03-08T01:32:30.463Z,83.00
2024-03-08T01:35:32.188Z,83.10
2024-03-08T01:38:34.735Z,83.30
2024-03-08T01:41:36.573Z,83.20
2024-03-08T01:44:39.242Z,83.30
2024-03-08T01:47:42.006Z,83.30
2024-03-08T01:50:43.841Z,83.40
2024-03-08T01:53:48.630Z,83.50
2024-03-08T01:56:50.834Z,83.50
2024-03-08T01:59:52.663Z,83.70
2024-03-08T02:02:55.866Z,83.80
2024-03-08T02:05:57.728Z,83.90
2024-03-08T02:09:01.194Z,83.90
2024-03-08T02:12:03.115Z,83.80
2024-03-08T02:15:09.431Z,84.10
2024-03-08T02:18:11.728Z,84.00
2024-03-08T02:21:14.778Z,83.70
2024-03-08T02:24:17.627Z,83.50
2024-03-08T02:27:28.229Z,83.40
2024-03-08T02:30:29.918Z,83.50
2024-03-08T02:33:32.491Z,83.30
2024-03-08T02:36:34.187Z,83.40
2024-03-08T02:39:35.852Z,83.30
2024-03-08T02:42:38.108Z,83.30
2024-03-08T02:45:39.840Z,83.30
2024-03-08T02:48:42.572Z,83.40
2024-03-08T02:51:44.841Z,83.60
2024-03-08T02:54:46.476Z,83.70
2024-03-08T02:57:49.262Z,83.50
2024-03-08T03:00:51.083Z,83.30
2024-03-08T03:03:53.219Z,83.40
2024-03-08T03:06:55.447Z,83.70
2024-03-08T03:09:57.184Z,83.60
2024-03-08T03:12:59.369Z,83.60
2024-03-08T03:16:01.506Z,84.00
2024-03-08T03:19:03.144Z,84.10
2024-03-08T03:22:05.407Z,84.10
2024-03-08T03:25:08.072Z,84.00
2024-03-08T03:28:10.809Z,83.90
2024-03-08T03:31:12.995Z,83.90
2024-03-08T03:34:14.722Z,84.30
2024-03-08T03:37:16.870Z,84.50
2024-03-08T03:40:18.895Z,84.30
2024-03-08T03:43:21.567Z,84.40
2024-03-08T03:46:23.666Z,84.50
2024-03-08T03:49:25.370Z,84.10
2024-03-08T03:52:27.585Z,83.50
2024-03-08T03:55:29.542Z,83.40
2024-03-08T03:58:32.224Z,83.70
2024-03-08T04:01:38.026Z,83.90
2024-03-08T04:04:40.769Z,83.80
2024-03-08T04:07:42.430Z,83.70
2024-03-08T04:10:44.522Z,83.70
2024-03-08T04:13:46.213Z,83.80
2024-03-08T04:16:48.220Z,83.80
2024-03-08T04:19:49.861Z,83.90
2024-03-08T04:22:52.384Z,83.90
2024-03-08T04:25:54.762Z,83.70
2024-03-08T04:28:56.474Z,84.00
2024-03-08T04:31:58.755Z,84.20
2024-03-08T04:35:00.659Z,84.20
2024-03-08T04:38:02.325Z,83.90
2024-03-08T04:41:04.902Z,84.10
2024-03-08T04:44:06.902Z,83.90
2024-03-08T04:47:09.632Z,83.60
2024-03-08T04:50:11.272Z,83.40
2024-03-08T04:53:13.430Z,83.40
2024-03-08T04:56:15.683Z,83.70
2024-03-08T04:59:17.365Z,83.70
2024-03-08T05:02:19.665Z,83.80
2024-03-08T05:05:21.285Z,83.70
2024-03-08T05:08:23.545Z,83.60
2024-03-08T05:11:25.230Z,83.90
2024-03-08T05:14:26.964Z,83.90
2024-03-08T05:17:29.269Z,84.10
2024-03-08T05:20:31.528Z,84.10
2024-03-08T05:23:33.203Z,84.10
2024-03-08T05:26:35.480Z,84.20
2024-03-08T05:29:37.238Z,84.10
2024-03-08T05:32:40.201Z,84.10
2024-03-08T05:35:42.472Z,84.20
2024-03-08T05:38:44.848Z,84.50
2024-03-08T05:41:47.406Z,84.80
2024-03-08T05:44:49.149Z,84.50
2024-03-08T05:47:50.857Z,84.50
2024-03-08T05:50:53.486Z,84.50
2024-03-08T05:53:55.344Z,84.40
2024-03-08T05:56:57.999Z,84.70
2024-03-08T06:00:00.430Z,85.00
2024-03-08T06:03:02.261Z,85.40
2024-03-08T06:06:04.878Z,85.60
2024-03-08T06:09:06.644Z,85.80
2024-03-08T06:12:08.456Z,85.90
2024-03-08T06:15:11.098Z,86.10
2024-03-08T06:18:13.014Z,86.40
2024-03-08T06:21:15.726Z,86.60
2024-03-08T06:24:17.841Z,86.80
2024-03-08T06:27:19.643Z,87.10
2024-03-08T06:30:22.250Z,87.30
2024-03-08T06:33:23.981Z,87.50
2024-03-08T06:36:26.535Z,87.60
2024-03-08T06:39:28.909Z,87.80
2024-03-08T06:42:30.868Z,87.90
2024-03-08T06:45:33.466Z,88.00
2024-03-08T06:48:35.695Z,88.10
2024-03-08T06:51:37.375Z,88.00
2024-03-08T06:54:40.192Z,88.00
2024-03-08T06:57:42.780Z,87.80
2024-03-08T07:00:44.470Z,87.90
2024-03-08T07:03:47.184Z,87.90
2024-03-08T07:06:49.126Z,87.60
2024-03-08T07:09:51.345Z,87.60
2024-03-08T07:12:54.251Z,87.70
2024-03-08T07:15:55.988Z,86.70
2024-03-08T07:18:58.847Z,86.80
2024-03-08T07:22:00.522Z,86.60
2024-03-08T07:25:02.764Z,86.00
2024-03-08T07:28:05.220Z,83.50
2024-03-08T07:31:07.060Z,81.90
2024-03-08T07:34:09.592Z,81.40
2024-03-08T07:37:11.852Z,81.60
2024-03-08T07:40:13.709Z,78.80
2024-03-08T07:43:16.310Z,77.80
2024-03-08T07:46:18.012Z,76.90
2024-03-08T07:49:20.054Z,75.80
2024-03-08T07:52:22.279Z,75.50
2024-03-08T07:55:23.896Z,75.00
2024-03-08T07:58:26.047Z,76.60
2024-03-08T08:01:28.004Z,74.50
2024-03-08T08:04:29.765Z,74.50
2024-03-08T08:07:31.737Z,72.90
2024-03-08T08:10:34.088Z,71.30
2024-03-08T08:13:37.026Z,70.50
2024-03-08T08:16:38.764Z,69.80
2024-03-08T08:19:44.770Z,68.40
2024-03-08T08:22:47.269Z,67.40
2024-03-08T08:25:49.100Z,66.30
2024-03-08T08:28:50.825Z,65.00
2024-03-08T08:31:52.610Z,64.50
2024-03-08T08:34:54.348Z,63.40
2024-03-08T08:37:56.627Z,63.10
2024-03-08T08:40:58.460Z,64.00
2024-03-08T08:44:09.033Z,63.10
2024-03-08T08:47:18.742Z,62.50
2024-03-08T08:50:20.515Z,62.90
2024-03-08T08:53:23.061Z,61.40
2024-03-08T08:56:25.081Z,62.30
2024-03-08T08:59:26.690Z,60.90
2024-03-08T09:02:29.263Z,60.30
2024-03-08T09:05:30.986Z,59.30
2024-03-08T09:08:33.931Z,59.30
2024-03-08T09:11:36.487Z,59.80
2024-03-08T09:14:38.164Z,59.40
2024-03-08T09:17:41.394Z,58.70
2024-03-08T09:20:44.868Z,58.20
2024-03-08T09:23:46.731Z,57.50
2024-03-08T09:26:48.506Z,56.70
2024-03-08T09:29:50.561Z,56.90
2024-03-08T09:32:52.608Z,57.20
2024-03-08T09:35:54.487Z,56.60
2024-03-08T09:38:56.154Z,56.90
2024-03-08T09:41:58.539Z,57.50
2024-03-08T09:45:00.718Z,57.60
2024-03-08T09:48:03.392Z,55.90
2024-03-08T09:51:06.404Z,56.40
2024-03-08T09:54:14.647Z,56.80
2024-03-08T09:57:22.039Z,56.40
2024-03-08T10:00:24.091Z,55.80
2024-03-08T10:03:25.778Z,55.40
2024-03-08T10:06:28.112Z,54.00
2024-03-08T10:09:29.723Z,52.50
2024-03-08T10:12:32.247Z,51.70
2024-03-08T10:15:33.898Z,51.90
2024-03-08T10:18:36.325Z,51.40
2024-03-08T10:21:51.426Z,49.60
2024-03-08T10:24:53.811Z,50.50
2024-03-08T10:27:56.793Z,50.50
2024-03-08T10:30:59.275Z,48.20
2024-03-08T10:34:02.255Z,47.70
2024-03-08T10:37:05.920Z,46.40
2024-03-08T10:40:13.893Z,45.70
2024-03-08T10:43:25.666Z,44.90
2024-03-08T10:47:00.354Z,44.20
2024-03-08T10:50:12.554Z,42.40
2024-03-08T10:53:15.551Z,39.60
2024-03-08T10:56:18.068Z,36.70
2024-03-08T10:59:20.599Z,33.30
2024-03-08T11:02:23.177Z,31.40
2024-03-08T11:05:45.415Z,30.60
2024-03-08T11:08:50.071Z,28.60
2024-03-08T11:11:51.749Z,28.60
2024-03-08T11:14:55.597Z,27.10
2024-03-08T11:17:59.445Z,27.20
2024-03-08T11:21:05.786Z,25.10
2024-03-08T11:24:15.342Z,24.80
2024-03-08T11:27:17.658Z,24.90
2024-03-08T11:30:23.338Z,19.90
2024-03-08T11:33:28.199Z,19.60
2024-03-08T11:36:29.845Z,19.60
2024-03-08T11:39:32.109Z,25.30
2024-03-08T11:42:36.704Z,24.40
2024-03-08T11:45:38.848Z,19.30
2024-03-08T11:48:45.359Z,24.20
2024-03-08T11:51:48.056Z,19.30
2024-03-08T11:54:53.764Z,19.80
2024-03-08T11:58:06.857Z,17.50
2024-03-08T12:01:10.588Z,17.80
2024-03-08T12:04:14.286Z,18.00
2024-03-08T12:07:15.951Z,17.00
2024-03-08T12:10:22.445Z,18.10
2024-03-08T12:13:24.150Z,16.60
2024-03-08T12:16:26.386Z,16.90
2024-03-08T12:19:29.401Z,15.80
2024-03-08T12:22:32.014Z,15.80
2024-03-08T12:25:34.654Z,16.30
2024-03-08T12:28:37.105Z,15.80
2024-03-08T12:31:38.824Z,15.80
2024-03-08T12:34:41.648Z,15.80
2024-03-08T12:37:43.497Z,16.10
2024-03-08T12:40:45.571Z,15.00
2024-03-08T12:43:47.878Z,15.70
2024-03-08T12:46:53.346Z,15.10
2024-03-08T12:49:55.569Z,15.30
2024-03-08T12:52:58.090Z,14.60
2024-03-08T12:55:59.863Z,14.50
2024-03-08T12:59:02.835Z,14.90
2024-03-08T13:02:04.528Z,13.70
2024-03-08T13:05:07.397Z,13.90
2024-03-08T13:08:09.906Z,14.30
2024-03-08T13:11:12.888Z,13.30
2024-03-08T13:14:14.668Z,13.10
2024-03-08T13:17:17.013Z,13.70
2024-03-08T13:20:24.942Z,13.40
2024-03-08T13:23:32.933Z,12.00
2024-03-08T13:26:34.782Z,12.20
2024-03-08T13:29:37.083Z,11.90
2024-03-08T13:32:38.775Z,11.90
2024-03-08T13:35:41.078Z,12.30
2024-03-08T13:38:47.919Z,11.30
2024-03-08T13:41:50.058Z,11.80
2024-03-08T13:44:51.684Z,12.40
2024-03-08T13:47:57.645Z,12.30
2024-03-08T13:50:59.470Z,13.10
2024-03-08T13:54:01.926Z,13.60
2024-03-08T13:57:03.829Z,12.80
2024-03-08T14:00:06.882Z,11.50
2024-03-08T14:03:14.907Z,12.50
2024-03-08T14:09:25.684Z,13.40
2024-03-08T14:12:30.490Z,12.60
2024-03-08T14:15:32.702Z,12.00
2024-03-08T14:18:35.366Z,12.70
2024-03-08T14:21:37.025Z,12.40
2024-03-08T14:24:39.392Z,12.10
2024-03-08T14:27:41.026Z,11.00
2024-03-08T14:30:43.325Z,12.60
2024-03-08T14:33:45.967Z,12.20
2024-03-08T14:36:48.186Z,12.60
2024-03-08T14:39:49.856Z,13.00
2024-03-08T14:42:52.280Z,12.60
2024-03-08T14:45:53.917Z,13.20
2024-03-08T14:48:56.619Z,12.60
2024-03-08T14:51:58.223Z,12.80
2024-03-08T14:55:01.062Z,12.90
2024-03-08T14:58:02.725Z,11.80
2024-03-08T15:01:06.158Z,11.50
2024-03-08T15:04:07.796Z,12.40
2024-03-08T15:07:10.121Z,12.50
2024-03-08T15:10:11.761Z,13.60
2024-03-08T15:13:14.383Z,12.10
2024-03-08T15:16:16.399Z,12.80
2024-03-08T15:19:18.810Z,12.10
2024-03-08T15:22:20.671Z,13.10
2024-03-08T15:25:23.421Z,12.20
2024-03-08T15:28:25.090Z,13.90
2024-03-08T15:31:27.357Z,14.60
2024-03-08T15:34:29.028Z,14.00
2024-03-08T15:37:31.424Z,13.90
2024-03-08T15:40:33.140Z,13.30
2024-03-08T15:43:35.593Z,15.30
2024-03-08T15:46:37.250Z,14.30
2024-03-08T15:49:39.644Z,14.20
2024-03-08T15:52:45.097Z,16.40
2024-03-08T15:55:47.255Z,17.90
2024-03-08T15:58:49.192Z,18.30
2024-03-08T16:01:52.115Z,17.60
2024-03-08T16:04:54.364Z,19.60
2024-03-08T16:07:57.182Z,25.30
2024-03-08T16:10:58.924Z,25.20
2024-03-08T16:14:01.593Z,24.70
2024-03-08T16:17:03.417Z,26.40
2024-03-08T16:20:05.673Z,26.70
2024-03-08T16:23:07.761Z,27.60
2024-03-08T16:26:10.154Z,26.70
2024-03-08T16:29:12.025Z,25.90
2024-03-08T16:32:14.769Z,27.40
2024-03-08T16:35:16.408Z,26.60
2024-03-08T16:38:18.796Z,26.90
2024-03-08T16:41:20.546Z,26.60
2024-03-08T16:44:22.953Z,27.10
2024-03-08T16:47:24.735Z,28.80
2024-03-08T16:50:27.106Z,31.00
2024-03-08T16:53:28.857Z,32.40
2024-03-08T16:56:30.595Z,34.40
2024-03-08T16:59:32.263Z,35.80
2024-03-08T17:02:34.600Z,37.70
2024-03-08T17:05:36.239Z,39.30
2024-03-08T17:08:38.143Z,40.10
2024-03-08T17:11:42.667Z,41.30
2024-03-08T17:14:45.199Z,43.00
2024-03-08T17:17:46.870Z,44.00
2024-03-08T17:20:49.281Z,45.40
2024-03-08T17:23:51.165Z,46.60
2024-03-08T17:26:54.196Z,47.90
2024-03-08T17:29:55.829Z,48.60
2024-03-08T17:33:02.583Z,49.40
2024-03-08T17:36:05.237Z,50.20
2024-03-08T17:39:06.914Z,50.20
2024-03-08T17:42:09.584Z,49.90
2024-03-08T17:45:11.710Z,49.70
2024-03-08T17:48:14.459Z,50.10
2024-03-08T17:51:17.000Z,49.90
2024-03-08T17:54:18.663Z,51.00
2024-03-08T17:57:20.874Z,51.00
2024-03-08T18:00:23.960Z,50.80
2024-03-08T18:03:25.655Z,51.20
2024-03-08T18:06:27.574Z,50.40
2024-03-08T18:09:29.232Z,50.10
2024-03-08T18:12:30.930Z,51.00
2024-03-08T18:15:33.080Z,50.30
2024-03-08T18:18:34.763Z,50.70
2024-03-08T18:21:40.193Z,51.90
2024-03-08T18:24:41.821Z,51.90
2024-03-08T18:27:44.204Z,52.10
2024-03-08T18:30:46.527Z,53.20
2024-03-08T18:33:48.289Z,53.50
2024-03-08T18:36:50.623Z,54.70
2024-03-08T18:39:52.251Z,54.00
2024-03-08T18:42:55.794Z,53.70
2024-03-08T18:45:57.767Z,53.60
2024-03-08T18:48:59.567Z,54.50
2024-03-08T18:52:02.144Z,54.20
2024-03-08T18:55:05.253Z,54.40
2024-03-08T18:58:07.243Z,54.90
2024-03-08T19:01:09.688Z,55.00
2024-03-08T19:04:11.346Z,55.40
2024-03-08T19:07:13.035Z,55.70
2024-03-08T19:10:15.535Z,55.40
2024-03-08T19:13:17.482Z,55.20
2024-03-08T19:16:20.283Z,56.20
2024-03-08T19:19:22.292Z,57.30
2024-03-08T19:22:23.972Z,57.80
2024-03-08T19:25:30.752Z,57.70
2024-03-08T19:28:32.484Z,58.10
2024-03-08T19:31:34.858Z,58.30
2024-03-08T19:34:37.282Z,58.20
2024-03-08T19:37:42.888Z,58.10
2024-03-08T19:40:44.685Z,58.60
2024-03-08T19:43:46.434Z,59.00
2024-03-08T19:46:49.424Z,59.40
2024-03-08T19:49:51.102Z,62.20
2024-03-08T19:52:54.286Z,63.70
2024-03-08T19:55:56.076Z,61.10
2024-03-08T19:58:57.880Z,60.80
2024-03-08T20:01:59.788Z,61.40
2024-03-08T20:05:01.566Z,61.40
2024-03-08T20:08:04.367Z,61.90
2024-03-08T20:11:06.699Z,62.30
2024-03-08T20:14:08.408Z,62.40
2024-03-08T20:17:11.089Z,62.70
2024-03-08T20:20:14.813Z,63.10
2024-03-08T20:23:17.144Z,62.90
2024-03-08T20:26:19.169Z,63.90
2024-03-08T20:29:20.899Z,64.70
2024-03-08T20:32:22.938Z,65.70
2024-03-08T20:35:27.378Z,65.80
2024-03-08T20:38:29.021Z,65.90
2024-03-08T20:41:30.719Z,66.50
2024-03-08T20:44:32.866Z,67.00
2024-03-08T20:47:35.790Z,67.50
2024-03-08T20:50:38.103Z,68.30
2024-03-08T20:53:39.931Z,68.60
2024-03-08T20:56:42.991Z,68.90
2024-03-08T20:59:45.252Z,69.60
2024-03-08T21:02:47.496Z,70.20
2024-03-08T21:05:50.640Z,70.50
2024-03-08T21:08:52.850Z,70.80
2024-03-08T21:11:54.495Z,70.90
2024-03-08T21:14:56.732Z,71.30
2024-03-08T21:17:58.718Z,71.30
2024-03-08T21:21:03.138Z,71.60
2024-03-08T21:24:05.667Z,72.10
2024-03-08T21:27:07.675Z,72.30
2024-03-08T21:30:10.836Z,72.30
2024-03-08T21:33:13.103Z,72.70
2024-03-08T21:36:14.826Z,73.00
2024-03-08T21:39:16.505Z,73.30
2024-03-08T21:42:18.131Z,73.50
2024-03-08T21:45:20.363Z,73.60
2024-03-08T21:48:22.668Z,73.40
2024-03-08T21:51:24.339Z,73.60
2024-03-08T21:54:26.004Z,73.70
2024-03-08T21:57:27.642Z,73.70
2024-03-08T22:00:30.088Z,73.90
2024-03-08T22:03:31.736Z,74.20
2024-03-08T22:06:33.384Z,74.40
2024-03-08T22:09:35.092Z,74.60
2024-03-08T22:12:36.934Z,74.50
2024-03-08T22:15:39.178Z,74.60
2024-03-08T22:18:41.693Z,74.60
2024-03-08T22:21:43.354Z,74.40
2024-03-08T22:24:46.090Z,74.30
2024-03-08T22:27:48.423Z,74.30
2024-03-08T22:30:50.135Z,73.80
2024-03-08T22:33:52.453Z,73.30
2024-03-08T22:36:54.080Z,73.90
2024-03-08T22:39:57.213Z,74.10
2024-03-08T22:43:00.035Z,73.10
2024-03-08T22:46:02.280Z,72.90
2024-03-08T22:49:04.493Z,72.80
2024-03-08T22:52:06.249Z,72.80
2024-03-08T22:55:08.973Z,73.00
2024-03-08T22:58:11.006Z,73.20
2024-03-08T23:01:12.688Z,73.50
2024-03-08T23:04:15.030Z,74.00
2024-03-08T23:07:16.821Z,74.60
2024-03-08T23:10:19.842Z,75.00
2024-03-08T23:13:22.049Z,75.50
2024-03-08T23:16:24.047Z,75.60
2024-03-08T23:19:29.894Z,75.90
2024-03-08T23:22:31.661Z,76.20
2024-03-08T23:25:33.981Z,76.40
2024-03-08T23:28:36.090Z,76.50
2024-03-08T23:31:38.069Z,76.70
2024-03-08T23:34:40.366Z,77.00
2024-03-08T23:37:43.010Z,77.30
2024-03-08T23:40:45.553Z,77.30
2024-03-08T23:43:47.874Z,77.30
2024-03-08T23:46:49.616Z,77.60
2024-03-08T23:49:51.754Z,78.00
2024-03-08T23:52:54.413Z,78.50
2024-03-08T23:55:56.158Z,78.40
2024-03-08T23:58:59.091Z,78.20
